createdAt,value
2023-03-10T00:03:14.710Z,4.50
2023-03-10T00:07:16.330Z,1.53
2023-03-10T00:11:17.892Z,2.37
2023-03-10T00:15:20.850Z,0.70
2023-03-10T00:19:22.487Z,2.20
2023-03-10T00:23:23.931Z,1.00
2023-03-10T00:27:25.549Z,3.37
2023-03-10T00:31:28.361Z,1.80
2023-03-10T00:35:29.844Z,1.60
2023-03-10T00:39:31.468Z,0.60
2023-03-10T00:43:33.651Z,2.03
2023-03-10T00:47:36.513Z,2.73
2023-03-10T00:51:37.881Z,0.47
2023-03-10T00:55:39.299Z,1.53
2023-03-10T00:59:49.998Z,0.53
2023-03-10T01:03:54.871Z,2.10
2023-03-10T01:07:56.562Z,1.23
2023-03-10T01:11:58.030Z,0.87
2023-03-10T01:16:00.882Z,0.73
2023-03-10T01:20:06.277Z,1.73
2023-03-10T01:24:08.221Z,1.23
2023-03-10T01:28:10.199Z,1.80
2023-03-10T01:32:11.658Z,1.17
2023-03-10T01:36:17.514Z,4.03
2023-03-10T01:40:19.282Z,3.10
2023-03-10T01:44:21.262Z,2.10
2023-03-10T01:48:24.037Z,1.77
2023-03-10T01:52:31.022Z,0.60
2023-03-10T01:56:35.134Z,2.40
2023-03-10T02:00:36.823Z,1.03
2023-03-10T02:04:43.006Z,0.53
2023-03-10T02:08:50.274Z,0.60
2023-03-10T02:12:51.924Z,0.50
2023-03-10T02:16:53.299Z,2.10
2023-03-10T02:21:03.637Z,2.63
2023-03-10T02:25:17.786Z,1.83
2023-03-10T02:29:25.250Z,1.60
2023-03-10T02:33:30.495Z,3.10
2023-03-10T02:37:34.603Z,2.23
2023-03-10T02:41:38.545Z,4.97
2023-03-10T02:45:43.707Z,4.13
2023-03-10T02:49:45.792Z,6.10
2023-03-10T02:53:47.312Z,6.50
2023-03-10T02:57:48.736Z,7.63
2023-03-10T03:01:51.524Z,6.27
2023-03-10T03:05:53.310Z,4.63
2023-03-10T03:09:55.035Z,9.03
2023-03-10T03:13:56.538Z,7.10
2023-03-10T03:17:59.516Z,7.43
2023-03-10T03:22:01.087Z,10.30
2023-03-10T03:26:02.681Z,7.07
2023-03-10T03:30:08.108Z,11.07
2023-03-10T03:34:11.101Z,8.43
2023-03-10T03:38:12.829Z,8.93
2023-03-10T03:42:14.484Z,7.67
2023-03-10T03:46:15.973Z,5.87
2023-03-10T03:50:22.382Z,6.20
2023-03-10T03:54:24.363Z,4.87
2023-03-10T03:58:26.275Z,9.10
2023-03-10T04:02:27.903Z,3.67
2023-03-10T04:06:30.923Z,3.77
2023-03-10T04:10:32.368Z,4.10
2023-03-10T04:14:34.143Z,3.57
2023-03-10T04:18:35.686Z,6.57
2023-03-10T04:22:38.579Z,3.63
2023-03-10T04:26:40.443Z,5.40
2023-03-10T04:30:43.132Z,3.13
2023-03-10T04:34:44.584Z,3.07
2023-03-10T04:38:47.841Z,4.60
2023-03-10T04:42:49.248Z,5.27
2023-03-10T04:46:50.714Z,5.67
2023-03-10T04:50:55.926Z,1.77
2023-03-10T04:54:59.987Z,9.37
2023-03-10T04:59:01.651Z,7.50
2023-03-10T05:03:03.094Z,7.03
2023-03-10T05:07:05.072Z,6.70
2023-03-10T05:11:08.677Z,9.43
2023-03-10T05:15:10.806Z,9.37
2023-03-10T05:19:12.310Z,4.37
2023-03-10T05:23:13.968Z,14.67
2023-03-10T05:27:17.017Z,3.47
2023-03-10T05:31:18.746Z,9.07
2023-03-10T05:35:21.253Z,8.77
2023-03-10T05:39:22.755Z,10.50
2023-03-10T05:43:25.894Z,5.80
2023-03-10T05:47:27.334Z,6.73
2023-03-10T05:51:29.059Z,9.80
2023-03-10T05:55:30.463Z,11.23
2023-03-10T05:59:33.301Z,6.27
2023-03-10T06:03:35.760Z,7.37
2023-03-10T06:07:37.225Z,4.67
2023-03-10T06:11:38.775Z,4.47
2023-03-10T06:15:41.591Z,4.67
2023-03-10T06:19:43.543Z,6.47
2023-03-10T06:23:44.995Z,7.10
2023-03-10T06:27:46.755Z,12.50
2023-03-10T06:31:50.096Z,11.47
2023-03-10T06:35:52.254Z,7.47
2023-03-10T06:39:53.695Z,3.83
2023-03-10T06:43:55.337Z,6.43
2023-03-10T06:47:58.795Z,5.23
2023-03-10T06:52:01.474Z,3.07
2023-03-10T06:56:05.645Z,4.30
2023-03-10T07:00:09.364Z,5.67
2023-03-10T07:04:12.852Z,4.43
2023-03-10T07:08:14.563Z,3.67
2023-03-10T07:12:16.248Z,2.60
2023-03-10T07:16:18.197Z,4.07
2023-03-10T07:20:22.269Z,2.63
2023-03-10T07:24:25.503Z,3.10
2023-03-10T07:28:27.364Z,3.00
2023-03-10T07:32:28.793Z,4.97
2023-03-10T07:36:33.954Z,4.33
2023-03-10T07:40:35.619Z,3.57
2023-03-10T07:44:37.345Z,4.03
2023-03-10T07:48:39.373Z,5.23
2023-03-10T07:52:42.228Z,3.70
2023-03-10T07:56:43.887Z,14.83
2023-03-10T08:00:45.417Z,5.97
2023-03-10T08:04:47.026Z,5.43
2023-03-10T08:08:50.701Z,3.73
2023-03-10T08:12:54.125Z,6.03
2023-03-10T08:16:56.283Z,5.67
2023-03-10T08:20:58.449Z,4.60
2023-03-10T08:25:02.017Z,4.03
2023-03-10T08:29:03.554Z,7.17
2023-03-10T08:33:05.065Z,7.23
2023-03-10T08:37:06.552Z,4.10
2023-03-10T08:41:11.194Z,5.37
2023-03-10T08:45:12.968Z,6.17
2023-03-10T08:49:15.856Z,4.27
2023-03-10T08:53:17.288Z,4.50
2023-03-10T08:57:21.991Z,3.90
2023-03-10T09:01:23.395Z,6.07
2023-03-10T09:05:24.906Z,4.97
2023-03-10T09:09:26.565Z,6.30
2023-03-10T09:13:29.424Z,6.00
2023-03-10T09:17:31.172Z,4.93
2023-03-10T09:21:33.679Z,4.63
2023-03-10T09:25:35.525Z,4.80
2023-03-10T09:29:42.952Z,6.77
2023-03-10T09:33:46.540Z,5.83
2023-03-10T09:37:49.327Z,5.77
2023-03-10T09:42:13.339Z,4.23
2023-03-10T09:46:22.832Z,5.37
2023-03-10T09:50:33.633Z,4.53
2023-03-10T09:54:45.983Z,9.33
2023-03-10T09:58:50.875Z,3.37
2023-03-10T10:03:02.206Z,2.90
2023-03-10T10:07:12.239Z,3.47
2023-03-10T10:11:16.166Z,3.63
2023-03-10T10:15:20.487Z,3.90
2023-03-10T10:19:25.113Z,4.03
2023-03-10T10:23:33.042Z,3.93
2023-03-10T10:27:35.906Z,4.00
2023-03-10T10:31:37.666Z,2.13
2023-03-10T10:35:42.785Z,4.70
2023-03-10T10:39:45.011Z,2.60
2023-03-10T10:43:48.771Z,3.37
2023-03-10T10:47:52.155Z,4.07
2023-03-10T10:52:00.513Z,6.97
2023-03-10T10:56:05.717Z,2.53
2023-03-10T11:00:16.076Z,2.27
2023-03-10T11:04:18.928Z,1.93
2023-03-10T11:08:31.879Z,1.77
2023-03-10T11:12:38.114Z,2.30
2023-03-10T11:16:48.261Z,3.13
2023-03-10T11:20:58.808Z,4.30
2023-03-10T11:25:20.900Z,3.57
2023-03-10T11:29:38.303Z,2.67
2023-03-10T11:33:47.976Z,4.40
2023-03-10T11:37:55.621Z,3.53
2023-03-10T11:42:05.663Z,3.97
2023-03-10T11:46:15.300Z,1.70
2023-03-10T11:50:30.414Z,1.93
2023-03-10T11:54:36.192Z,1.33
2023-03-10T11:58:46.687Z,1.43
2023-03-10T12:03:04.026Z,1.23
2023-03-10T12:07:10.174Z,1.40
2023-03-10T12:11:15.806Z,0.87
2023-03-10T12:15:23.439Z,0.80
2023-03-10T12:19:25.294Z,0.93
2023-03-10T12:23:38.446Z,2.23
2023-03-10T12:28:11.334Z,1.70
2023-03-10T12:32:40.508Z,0.87
2023-03-10T12:36:45.098Z,0.47
2023-03-10T12:40:51.145Z,2.40
2023-03-10T12:45:00.846Z,0.87
2023-03-10T12:49:14.808Z,0.40
2023-03-10T12:53:31.870Z,0.67
2023-03-10T12:57:39.301Z,0.47
2023-03-10T13:01:55.003Z,0.80
2023-03-10T13:06:02.316Z,1.30
2023-03-10T13:10:05.246Z,0.50
2023-03-10T13:14:14.195Z,2.57
2023-03-10T13:18:18.724Z,1.27
2023-03-10T13:22:21.828Z,1.30
2023-03-10T13:26:23.660Z,0.93
2023-03-10T13:30:26.690Z,1.80
2023-03-10T13:34:30.378Z,0.73
2023-03-10T13:38:33.362Z,0.50
2023-03-10T13:42:43.892Z,0.63
2023-03-10T13:46:49.427Z,0.80
2023-03-10T13:51:04.637Z,1.73
2023-03-10T13:55:14.258Z,2.03
2023-03-10T13:59:19.772Z,0.70
2023-03-10T14:03:21.269Z,0.90
2023-03-10T14:07:24.349Z,0.60
2023-03-10T14:11:35.056Z,0.53
2023-03-10T14:15:36.731Z,0.70
2023-03-10T14:19:49.310Z,1.40
2023-03-10T14:23:50.803Z,0.30
2023-03-10T14:27:58.118Z,0.40
2023-03-10T14:31:59.746Z,1.07
2023-03-10T14:36:01.513Z,0.53
2023-03-10T14:40:03.531Z,2.27
2023-03-10T14:44:06.759Z,0.50
2023-03-10T14:48:13.868Z,0.80
2023-03-10T14:52:17.798Z,1.30
2023-03-10T14:56:21.822Z,1.03
2023-03-10T15:00:25.644Z,2.23
2023-03-10T15:04:27.331Z,2.23
2023-03-10T15:08:30.658Z,0.93
2023-03-10T15:12:33.797Z,1.90
2023-03-10T15:16:36.585Z,2.67
2023-03-10T15:20:38.361Z,2.30
2023-03-10T15:24:39.777Z,1.90
2023-03-10T15:28:41.294Z,2.10
2023-03-10T15:32:44.742Z,2.67
2023-03-10T15:36:46.421Z,1.83
2023-03-10T15:40:48.226Z,1.23
2023-03-10T15:44:49.950Z,3.90
2023-03-10T15:48:52.739Z,1.43
2023-03-10T15:52:56.451Z,0.80
2023-03-10T15:56:58.597Z,1.03
2023-03-10T16:01:06.236Z,0.83
2023-03-10T16:05:09.705Z,1.23
2023-03-10T16:09:11.671Z,1.00
2023-03-10T16:13:13.346Z,0.70
2023-03-10T16:17:15.032Z,1.43
2023-03-10T16:21:18.847Z,0.70
2023-03-10T16:25:20.408Z,0.83
2023-03-10T16:29:23.355Z,0.77
2023-03-10T16:33:24.757Z,0.70
2023-03-10T16:37:29.232Z,0.40
2023-03-10T16:41:30.652Z,0.40
2023-03-10T16:45:32.285Z,0.97
2023-03-10T16:49:34.439Z,0.70
2023-03-10T16:53:37.445Z,0.60
2023-03-10T16:57:39.062Z,1.10
2023-03-10T17:01:40.514Z,1.00
2023-03-10T17:05:41.904Z,1.17
2023-03-10T17:09:45.117Z,1.40
2023-03-10T17:13:47.299Z,1.97
2023-03-10T17:17:48.770Z,1.60
2023-03-10T17:21:50.537Z,1.60
2023-03-10T17:25:54.515Z,1.60
2023-03-10T17:29:57.270Z,2.60
2023-03-10T17:34:01.532Z,3.50
2023-03-10T17:38:02.927Z,1.83
2023-03-10T17:42:05.978Z,2.43
2023-03-10T17:46:10.985Z,3.40
2023-03-10T17:50:12.555Z,2.93
2023-03-10T17:54:17.574Z,3.83
2023-03-10T17:58:21.514Z,3.03
2023-03-10T18:02:23.501Z,3.20
2023-03-10T18:06:27.093Z,4.33
2023-03-10T18:10:28.538Z,3.67
2023-03-10T18:14:31.540Z,2.47
2023-03-10T18:18:33.396Z,3.73
2023-03-10T18:22:34.990Z,3.43
2023-03-10T18:26:36.875Z,2.97
2023-03-10T18:30:42.136Z,3.47
2023-03-10T18:34:43.667Z,4.47
2023-03-10T18:38:45.936Z,5.47
2023-03-10T18:42:47.446Z,3.70
2023-03-10T18:46:50.291Z,3.63
2023-03-10T18:50:51.834Z,3.37
2023-03-10T18:54:53.816Z,3.27
2023-03-10T18:58:55.531Z,2.97
2023-03-10T19:02:58.488Z,3.10
2023-03-10T19:06:59.922Z,5.40
2023-03-10T19:11:01.569Z,3.37
2023-03-10T19:15:03.254Z,3.20
2023-03-10T19:19:07.587Z,2.83
2023-03-10T19:23:09.411Z,2.27
2023-03-10T19:27:10.856Z,1.53
2023-03-10T19:31:15.421Z,1.30
2023-03-10T19:35:20.901Z,1.13
2023-03-10T19:39:22.777Z,1.30
2023-03-10T19:43:24.207Z,4.27
2023-03-10T19:47:25.656Z,3.77
2023-03-10T19:51:29.161Z,2.37
2023-03-10T19:55:30.558Z,2.40
2023-03-10T19:59:33.408Z,4.20
2023-03-10T20:03:34.928Z,2.70
2023-03-10T20:07:37.713Z,3.17
2023-03-10T20:11:41.433Z,3.50
2023-03-10T20:15:43.119Z,3.40
2023-03-10T20:19:44.610Z,3.30
2023-03-10T20:23:47.482Z,3.33
2023-03-10T20:27:50.805Z,4.97
2023-03-10T20:31:52.306Z,3.33
2023-03-10T20:35:54.102Z,4.57
2023-03-10T20:39:56.907Z,4.53
2023-03-10T20:43:58.322Z,3.87
2023-03-10T20:48:00.323Z,4.10
2023-03-10T20:52:02.450Z,3.30
2023-03-10T20:56:10.128Z,3.50
2023-03-10T21:00:12.413Z,2.97
2023-03-10T21:04:13.902Z,7.00
2023-03-10T21:08:17.916Z,3.70
2023-03-10T21:12:20.871Z,8.10
2023-03-10T21:16:22.324Z,4.80
2023-03-10T21:20:23.968Z,7.10
2023-03-10T21:24:25.610Z,2.57
2023-03-10T21:28:28.577Z,3.30
2023-03-10T21:32:30.352Z,3.03
2023-03-10T21:36:31.800Z,2.97
2023-03-10T21:40:33.476Z,4.27
2023-03-10T21:44:37.397Z,5.73
2023-03-10T21:48:38.901Z,4.77
2023-03-10T21:52:40.826Z,4.50
2023-03-10T21:56:43.045Z,2.53
2023-03-10T22:00:46.024Z,6.97
2023-03-10T22:04:48.278Z,2.80
2023-03-10T22:08:50.574Z,4.73
2023-03-10T22:12:52.009Z,3.70
2023-03-10T22:16:55.438Z,10.73
2023-03-10T22:20:57.126Z,6.33
2023-03-10T22:24:58.975Z,7.03
2023-03-10T22:29:00.639Z,5.57
2023-03-10T22:33:03.774Z,4.67
2023-03-10T22:37:05.466Z,7.10
2023-03-10T22:41:09.387Z,6.77
2023-03-10T22:45:17.600Z,7.37
2023-03-10T22:49:22.267Z,8.53
2023-03-10T22:53:24.174Z,5.40
2023-03-10T22:57:26.086Z,4.77
2023-03-10T23:01:27.847Z,6.80
2023-03-10T23:05:31.272Z,7.27
2023-03-10T23:09:32.917Z,10.90
2023-03-10T23:13:34.443Z,5.17
2023-03-10T23:17:36.068Z,5.17
2023-03-10T23:21:39.067Z,8.40
2023-03-10T23:25:44.843Z,10.87
2023-03-10T23:29:46.300Z,12.80
2023-03-10T23:33:48.843Z,7.73
2023-03-10T23:37:53.295Z,6.90
2023-03-10T23:41:55.263Z,8.73
2023-03-10T23:45:56.781Z,5.87
2023-03-10T23:49:58.679Z,9.33
2023-03-10T23:54:01.669Z,7.73
2023-03-10T23:58:04.128Z,7.37
